createdAt,value
2018-09-22T00:00:54.613Z,53.60
2018-09-22T00:11:18.117Z,54.70
2018-09-22T00:16:26.553Z,54.90
2018-09-22T00:21:34.905Z,55.50
2018-09-22T00:26:43.218Z,56.00
2018-09-22T00:31:51.577Z,56.30
2018-09-22T00:36:59.885Z,56.90
2018-09-22T00:42:08.213Z,57.60
2018-09-22T00:47:16.542Z,57.50
2018-09-22T00:52:24.861Z,56.50
2018-09-22T00:57:33.442Z,55.70
2018-09-22T01:02:41.715Z,55.60
2018-09-22T01:07:50.215Z,56.10
2018-09-22T01:12:58.669Z,55.80
2018-09-22T01:18:07.130Z,56.30
2018-09-22T01:23:15.406Z,56.80
2018-09-22T01:28:23.774Z,56.80
2018-09-22T01:33:32.005Z,57.10
2018-09-22T01:38:40.474Z,56.80
2018-09-22T01:43:48.845Z,56.50
2018-09-22T01:48:57.307Z,56.80
2018-09-22T01:54:05.725Z,55.00
2018-09-22T01:59:14.094Z,55.10
2018-09-22T02:04:22.319Z,54.60
2018-09-22T02:09:30.609Z,54.50
2018-09-22T02:14:39.008Z,54.20
2018-09-22T02:19:47.389Z,54.00
2018-09-22T02:24:55.739Z,54.40
2018-09-22T02:30:04.397Z,54.90
2018-09-22T02:35:12.810Z,55.50
2018-09-22T02:40:21.077Z,55.90
2018-09-22T02:45:29.406Z,56.70
2018-09-22T02:50:37.701Z,57.00
2018-09-22T02:55:45.973Z,57.00
2018-09-22T03:00:54.346Z,57.30
2018-09-22T03:06:02.641Z,57.30
2018-09-22T03:11:11.024Z,57.30
2018-09-22T03:16:19.387Z,57.70
2018-09-22T03:21:27.714Z,57.60
2018-09-22T03:26:36.069Z,57.90
2018-09-22T03:31:44.404Z,57.90
2018-09-22T03:36:52.769Z,58.80
2018-09-22T03:42:01.073Z,59.80
2018-09-22T03:47:09.475Z,60.20
2018-09-22T03:52:17.778Z,60.60
2018-09-22T03:57:26.041Z,60.90
2018-09-22T04:02:34.367Z,61.90
2018-09-22T04:07:42.637Z,62.30
2018-09-22T04:12:50.983Z,63.10
2018-09-22T04:17:59.462Z,64.20
2018-09-22T04:23:07.918Z,66.40
2018-09-22T04:28:16.257Z,68.30
2018-09-22T04:33:24.609Z,70.00
2018-09-22T04:38:32.990Z,70.30
2018-09-22T04:43:41.343Z,71.70
2018-09-22T04:48:49.779Z,73.00
2018-09-22T04:53:58.692Z,74.00
2018-09-22T04:59:06.987Z,75.80
2018-09-22T05:04:15.362Z,76.00
2018-09-22T05:09:23.674Z,76.30
2018-09-22T05:14:31.998Z,76.90
2018-09-22T05:19:40.442Z,76.80
2018-09-22T05:24:48.738Z,76.40
2018-09-22T05:29:57.009Z,76.20
2018-09-22T05:35:05.349Z,76.70
2018-09-22T05:40:13.677Z,76.00
2018-09-22T05:45:22.101Z,73.60
2018-09-22T05:50:30.494Z,73.00
2018-09-22T05:55:38.854Z,73.10
2018-09-22T06:00:47.120Z,71.70
2018-09-22T06:05:55.377Z,72.20
2018-09-22T06:11:03.771Z,72.30
2018-09-22T06:16:12.207Z,73.70
2018-09-22T06:21:20.534Z,74.90
2018-09-22T06:26:28.885Z,74.50
2018-09-22T06:31:37.299Z,73.00
2018-09-22T06:36:45.627Z,71.90
2018-09-22T06:41:54.050Z,72.20
2018-09-22T06:47:02.378Z,69.20
2018-09-22T06:52:10.707Z,68.60
2018-09-22T06:57:19.058Z,66.90
2018-09-22T07:02:27.453Z,66.60
2018-09-22T07:07:35.805Z,65.30
2018-09-22T07:12:44.066Z,64.40
2018-09-22T07:17:52.374Z,65.10
2018-09-22T07:23:06.423Z,64.60
2018-09-22T07:28:14.800Z,64.70
2018-09-22T07:33:23.249Z,64.80
2018-09-22T07:38:31.721Z,64.40
2018-09-22T07:43:40.118Z,63.60
2018-09-22T07:48:48.424Z,63.90
2018-09-22T07:53:56.809Z,65.10
2018-09-22T07:59:05.204Z,65.00
2018-09-22T08:04:13.569Z,63.20
2018-09-22T08:09:21.926Z,62.00
2018-09-22T08:14:30.222Z,61.00
2018-09-22T08:19:38.521Z,59.90
2018-09-22T08:24:46.817Z,59.00
2018-09-22T08:29:55.062Z,56.60
2018-09-22T08:35:03.510Z,52.70
2018-09-22T08:40:11.946Z,52.20
2018-09-22T08:45:20.211Z,48.40
2018-09-22T08:50:28.546Z,46.40
2018-09-22T08:55:36.897Z,47.30
2018-09-22T09:00:45.186Z,47.80
2018-09-22T09:05:53.518Z,46.20
2018-09-22T09:11:01.954Z,44.00
2018-09-22T09:16:10.276Z,41.60
2018-09-22T09:21:18.638Z,42.40
2018-09-22T09:26:26.954Z,44.20
2018-09-22T09:31:35.263Z,46.50
2018-09-22T09:36:43.578Z,46.20
2018-09-22T09:41:51.915Z,45.80
2018-09-22T09:47:00.249Z,45.10
2018-09-22T09:52:08.968Z,41.80
2018-09-22T09:57:17.334Z,42.90
2018-09-22T10:02:25.737Z,43.70
2018-09-22T10:07:34.097Z,43.70
2018-09-22T10:12:42.522Z,46.60
2018-09-22T10:17:50.808Z,45.50
2018-09-22T10:22:59.081Z,44.30
2018-09-22T10:28:07.650Z,45.50
2018-09-22T10:33:15.957Z,46.10
2018-09-22T10:38:24.177Z,47.30
2018-09-22T10:43:32.453Z,45.70
2018-09-22T10:48:40.834Z,46.80
2018-09-22T10:53:49.132Z,46.50
2018-09-22T10:58:57.452Z,45.70
2018-09-22T11:04:05.866Z,46.40
2018-09-22T11:09:14.190Z,43.90
2018-09-22T11:14:22.573Z,40.30
2018-09-22T11:19:30.969Z,38.50
2018-09-22T11:24:39.326Z,39.90
2018-09-22T11:29:47.678Z,39.10
2018-09-22T11:34:55.990Z,37.60
2018-09-22T11:40:04.755Z,37.40
2018-09-22T11:45:13.082Z,36.80
2018-09-22T11:50:21.341Z,37.50
2018-09-22T11:55:29.722Z,36.50
2018-09-22T12:00:38.058Z,37.40
2018-09-22T12:05:46.400Z,37.40
2018-09-22T12:10:54.689Z,37.30
2018-09-22T12:16:03.068Z,36.90
2018-09-22T12:21:11.303Z,36.70
2018-09-22T12:26:19.693Z,36.90
2018-09-22T12:31:28.038Z,38.20
2018-09-22T12:36:36.526Z,34.60
2018-09-22T12:41:44.959Z,36.30
2018-09-22T12:46:53.332Z,36.50
2018-09-22T12:52:01.554Z,34.80
2018-09-22T12:57:09.886Z,34.90
2018-09-22T13:02:18.219Z,34.80
2018-09-22T13:07:26.647Z,33.30
2018-09-22T13:12:34.970Z,33.10
2018-09-22T13:17:43.413Z,32.00
2018-09-22T13:22:51.813Z,32.50
2018-09-22T13:28:00.257Z,31.70
2018-09-22T13:33:08.599Z,30.90
2018-09-22T13:38:16.860Z,32.30
2018-09-22T13:43:25.249Z,31.80
2018-09-22T13:48:33.665Z,32.40
2018-09-22T13:53:42.002Z,32.80
2018-09-22T13:58:50.318Z,32.40
2018-09-22T14:03:58.746Z,33.20
2018-09-22T14:09:09.014Z,33.20
2018-09-22T14:14:17.155Z,32.60
2018-09-22T14:19:25.558Z,32.70
2018-09-22T14:24:33.953Z,32.10
2018-09-22T14:29:42.305Z,32.40
2018-09-22T14:34:50.565Z,31.80
2018-09-22T14:39:58.810Z,32.50
2018-09-22T14:45:07.130Z,32.70
2018-09-22T14:50:15.474Z,32.60
2018-09-22T14:55:23.749Z,33.40
2018-09-22T15:00:32.155Z,33.20
2018-09-22T15:05:40.442Z,32.60
2018-09-22T15:10:48.797Z,33.20
2018-09-22T15:15:57.141Z,33.40
2018-09-22T15:21:05.461Z,33.20
2018-09-22T15:26:13.737Z,33.70
2018-09-22T15:31:22.129Z,33.60
2018-09-22T15:36:30.553Z,33.90
2018-09-22T15:41:38.809Z,33.30
2018-09-22T15:46:47.210Z,33.60
2018-09-22T15:51:55.482Z,33.60
2018-09-22T15:57:03.838Z,33.70
2018-09-22T16:02:12.334Z,34.00
2018-09-22T16:07:20.801Z,34.70
2018-09-22T16:12:29.059Z,35.40
2018-09-22T16:17:37.401Z,34.80
2018-09-22T16:22:45.706Z,34.80
2018-09-22T16:27:53.994Z,35.70
2018-09-22T16:33:02.324Z,35.00
2018-09-22T16:38:10.653Z,35.30
2018-09-22T16:43:19.041Z,35.50
2018-09-22T16:48:27.424Z,36.00
2018-09-22T16:53:35.681Z,36.60
2018-09-22T16:58:43.986Z,37.10
2018-09-22T17:03:52.626Z,37.50
2018-09-22T17:09:01.013Z,38.00
2018-09-22T17:14:09.401Z,38.90
2018-09-22T17:19:17.646Z,39.50
2018-09-22T17:24:25.920Z,42.20
2018-09-22T17:29:34.219Z,43.40
2018-09-22T17:34:42.528Z,45.20
2018-09-22T17:39:51.033Z,49.30
2018-09-22T17:44:59.562Z,50.90
2018-09-22T17:50:07.865Z,53.10
2018-09-22T17:55:16.198Z,60.70
2018-09-22T18:00:24.481Z,64.50
2018-09-22T18:05:33.090Z,71.40
2018-09-22T18:10:41.465Z,73.90
2018-09-22T18:15:49.889Z,73.90
2018-09-22T18:20:58.189Z,76.00
2018-09-22T18:26:07.296Z,76.10
2018-09-22T18:31:15.521Z,77.80
2018-09-22T18:36:23.884Z,73.40
2018-09-22T18:41:32.142Z,73.70
2018-09-22T18:46:40.550Z,80.40
2018-09-22T18:51:48.917Z,79.60
2018-09-22T18:56:57.351Z,81.10
2018-09-22T19:02:05.752Z,77.30
2018-09-22T19:07:14.038Z,82.20
2018-09-22T19:12:22.411Z,84.40
2018-09-22T19:17:36.714Z,83.50
2018-09-22T19:22:48.198Z,83.70
2018-09-22T19:28:16.717Z,84.00
2018-09-22T19:33:31.898Z,85.10
2018-09-22T19:38:50.105Z,88.00
2018-09-22T19:44:09.870Z,88.60
2018-09-22T19:49:22.906Z,90.10
2018-09-22T19:54:31.345Z,89.80
2018-09-22T19:59:39.643Z,91.50
2018-09-22T20:04:47.911Z,92.10
2018-09-22T20:09:56.281Z,93.90
2018-09-22T20:15:04.794Z,93.00
2018-09-22T20:20:13.327Z,97.70
2018-09-22T20:25:21.706Z,95.40
2018-09-22T20:30:30.043Z,97.40
2018-09-22T20:35:38.273Z,97.60
2018-09-22T20:40:46.610Z,98.80
2018-09-22T20:45:55.037Z,96.60
2018-09-22T20:51:03.317Z,93.00
2018-09-22T20:56:11.670Z,94.70
2018-09-22T21:01:20.038Z,94.70
2018-09-22T21:06:28.405Z,94.70
2018-09-22T21:11:36.954Z,96.80
2018-09-22T21:16:45.351Z,96.60
2018-09-22T21:21:53.620Z,97.30
2018-09-22T21:27:02.006Z,97.30
2018-09-22T21:32:10.495Z,96.40
2018-09-22T21:37:19.117Z,96.20
2018-09-22T21:42:27.561Z,96.60
2018-09-22T21:47:35.994Z,94.90
2018-09-22T21:52:44.329Z,92.30
2018-09-22T21:57:52.640Z,90.60
2018-09-22T22:03:01.002Z,91.50
2018-09-22T22:08:09.270Z,89.20
2018-09-22T22:13:17.546Z,90.70
2018-09-22T22:18:25.864Z,95.70
2018-09-22T22:23:34.388Z,94.80
2018-09-22T22:28:42.846Z,93.20
2018-09-22T22:33:51.862Z,93.30
2018-09-22T22:39:00.310Z,94.60
2018-09-22T22:44:08.676Z,93.10
2018-09-22T22:49:17.015Z,93.00
2018-09-22T22:54:25.426Z,96.50
2018-09-22T22:59:33.669Z,99.90
2018-09-22T23:04:42.069Z,99.90
2018-09-22T23:09:50.453Z,99.90
2018-09-22T23:14:58.707Z,99.90
2018-09-22T23:20:07.045Z,99.90
2018-09-22T23:25:15.305Z,99.90
2018-09-22T23:30:23.606Z,99.90
2018-09-22T23:35:32.018Z,99.90
2018-09-22T23:40:40.555Z,99.90
2018-09-22T23:45:48.950Z,99.90
2018-09-22T23:50:57.250Z,98.10
2018-09-22T23:56:05.773Z,93.80
